createdAt,value
2017-05-27T00:00:40.618Z,6.42
2017-05-27T00:03:09.611Z,6.62
2017-05-27T00:05:39.107Z,6.42
2017-05-27T00:08:08.065Z,6.42
2017-05-27T00:10:37.038Z,6.12
2017-05-27T00:13:06.376Z,6.08
2017-05-27T00:15:35.332Z,6.08
2017-05-27T00:18:04.291Z,6.40
2017-05-27T00:20:33.608Z,5.94
2017-05-27T00:23:02.610Z,5.52
2017-05-27T00:25:31.606Z,5.38
2017-05-27T00:28:00.971Z,4.94
2017-05-27T00:30:29.930Z,6.22
2017-05-27T00:32:58.872Z,5.70
2017-05-27T00:35:27.443Z,6.00
2017-05-27T00:37:56.418Z,6.26
2017-05-27T00:40:25.388Z,6.10
2017-05-27T00:42:54.775Z,5.90
2017-05-27T00:45:23.758Z,5.76
2017-05-27T00:47:52.716Z,5.50
2017-05-27T00:50:22.115Z,5.54
2017-05-27T00:52:51.098Z,4.90
2017-05-27T00:55:20.058Z,5.00
2017-05-27T00:57:49.370Z,6.22
2017-05-27T01:00:18.327Z,5.22
2017-05-27T01:02:46.538Z,5.48
2017-05-27T01:05:15.839Z,5.10
2017-05-27T01:07:44.806Z,5.00
2017-05-27T01:10:13.870Z,5.68
2017-05-27T01:12:43.222Z,6.48
2017-05-27T01:15:12.175Z,5.80
2017-05-27T01:17:41.120Z,4.98
2017-05-27T01:20:10.515Z,5.24
2017-05-27T01:22:39.471Z,4.90
2017-05-27T01:25:08.429Z,5.90
2017-05-27T01:27:37.925Z,5.06
2017-05-27T01:30:06.909Z,5.58
2017-05-27T01:32:35.945Z,4.74
2017-05-27T01:35:04.590Z,6.16
2017-05-27T01:37:33.627Z,5.60
2017-05-27T01:40:02.596Z,6.10
2017-05-27T01:42:32.054Z,5.30
2017-05-27T01:45:00.997Z,5.64
2017-05-27T01:47:29.957Z,5.72
2017-05-27T01:49:59.427Z,6.58
2017-05-27T01:52:28.411Z,5.54
2017-05-27T01:54:57.371Z,5.62
2017-05-27T01:57:26.854Z,6.00
2017-05-27T01:59:55.814Z,6.52
2017-05-27T02:02:24.765Z,6.34
2017-05-27T02:04:54.064Z,6.06
2017-05-27T02:07:23.068Z,6.38
2017-05-27T02:09:52.033Z,5.92
2017-05-27T02:12:21.362Z,6.56
2017-05-27T02:14:50.326Z,6.64
2017-05-27T02:17:19.261Z,5.88
2017-05-27T02:19:48.559Z,6.94
2017-05-27T02:22:16.766Z,7.24
2017-05-27T02:24:45.719Z,6.90
2017-05-27T02:27:15.025Z,6.48
2017-05-27T02:29:43.976Z,6.82
2017-05-27T02:32:12.920Z,6.06
2017-05-27T02:34:42.212Z,7.40
2017-05-27T02:37:11.156Z,7.32
2017-05-27T02:39:40.159Z,5.82
2017-05-27T02:42:09.497Z,7.46
2017-05-27T02:44:38.468Z,6.60
2017-05-27T02:47:06.676Z,7.70
2017-05-27T02:49:36.158Z,7.00
2017-05-27T02:52:04.366Z,6.98
2017-05-27T02:54:33.342Z,6.80
2017-05-27T02:57:02.670Z,6.88
2017-05-27T02:59:31.664Z,7.36
2017-05-27T03:02:00.675Z,7.68
2017-05-27T03:04:30.118Z,7.84
2017-05-27T03:06:58.306Z,7.56
2017-05-27T03:09:27.253Z,8.60
2017-05-27T03:11:56.600Z,8.42
2017-05-27T03:14:24.795Z,6.64
2017-05-27T03:16:53.770Z,7.52
2017-05-27T03:19:23.237Z,7.76
2017-05-27T03:21:52.195Z,8.04
2017-05-27T03:24:21.159Z,7.38
2017-05-27T03:26:50.507Z,8.22
2017-05-27T03:29:19.468Z,7.94
2017-05-27T03:31:48.418Z,8.72
2017-05-27T03:34:17.815Z,7.30
2017-05-27T03:36:46.772Z,7.90
2017-05-27T03:39:15.719Z,7.30
2017-05-27T03:41:45.092Z,7.56
2017-05-27T03:44:14.094Z,7.20
2017-05-27T03:46:43.055Z,6.20
2017-05-27T03:49:12.476Z,7.48
2017-05-27T03:51:41.493Z,7.08
2017-05-27T03:54:10.491Z,6.74
2017-05-27T03:56:39.867Z,7.32
2017-05-27T03:59:08.859Z,7.30
2017-05-27T04:01:37.901Z,7.54
2017-05-27T04:04:07.406Z,7.92
2017-05-27T04:06:36.419Z,7.72
2017-05-27T04:09:05.385Z,7.42
2017-05-27T04:11:34.845Z,8.22
2017-05-27T04:14:03.066Z,8.80
2017-05-27T04:16:32.032Z,7.14
2017-05-27T04:19:01.428Z,7.62
2017-05-27T04:21:30.375Z,7.94
2017-05-27T04:23:59.358Z,6.66
2017-05-27T04:26:28.796Z,6.62
2017-05-27T04:28:57.861Z,8.28
2017-05-27T04:31:26.854Z,7.74
2017-05-27T04:33:56.190Z,7.70
2017-05-27T04:36:25.144Z,6.44
2017-05-27T04:38:54.115Z,6.40
2017-05-27T04:41:23.454Z,6.80
2017-05-27T04:43:52.408Z,6.16
2017-05-27T04:46:21.380Z,7.18
2017-05-27T04:48:50.754Z,7.38
2017-05-27T04:51:19.778Z,6.88
2017-05-27T04:53:48.735Z,6.24
2017-05-27T04:56:18.107Z,5.92
2017-05-27T04:58:47.081Z,6.26
2017-05-27T05:01:16.054Z,5.72
2017-05-27T05:03:45.440Z,5.92
2017-05-27T05:06:14.445Z,5.94
2017-05-27T05:08:43.405Z,6.12
2017-05-27T05:11:12.725Z,6.14
2017-05-27T05:13:41.687Z,6.60
2017-05-27T05:16:10.639Z,5.20
2017-05-27T05:18:39.995Z,5.86
2017-05-27T05:21:08.951Z,5.38
2017-05-27T05:23:37.918Z,6.04
2017-05-27T05:26:07.256Z,5.04
2017-05-27T05:28:36.403Z,4.90
2017-05-27T05:31:05.384Z,4.62
2017-05-27T05:33:34.748Z,4.52
2017-05-27T05:36:03.717Z,4.04
2017-05-27T05:38:32.670Z,3.88
2017-05-27T05:41:02.074Z,4.44
2017-05-27T05:43:31.049Z,5.06
2017-05-27T05:46:00.005Z,5.42
2017-05-27T05:48:29.334Z,4.70
2017-05-27T05:50:58.399Z,3.98
2017-05-27T05:53:27.396Z,4.12
2017-05-27T05:55:56.699Z,4.28
2017-05-27T05:58:25.659Z,3.94
2017-05-27T06:00:54.617Z,3.70
2017-05-27T06:03:23.996Z,3.62
2017-05-27T06:05:52.973Z,3.32
2017-05-27T06:08:21.970Z,3.60
2017-05-27T06:10:51.367Z,3.62
2017-05-27T06:13:20.443Z,3.02
2017-05-27T06:15:49.441Z,3.14
2017-05-27T06:18:18.758Z,3.08
2017-05-27T06:20:47.740Z,3.08
2017-05-27T06:23:17.124Z,3.48
2017-05-27T06:38:46.616Z,4.54
2017-05-27T06:41:15.558Z,3.76
2017-05-27T06:43:44.546Z,3.88
2017-05-27T06:46:13.942Z,3.88
2017-05-27T06:48:42.895Z,3.46
2017-05-27T06:51:11.910Z,3.56
2017-05-27T06:53:41.307Z,3.60
2017-05-27T06:56:10.356Z,4.08
2017-05-27T06:58:39.337Z,3.36
2017-05-27T07:01:08.704Z,3.98
2017-05-27T07:03:37.672Z,3.34
2017-05-27T07:06:06.633Z,3.96
2017-05-27T07:08:35.951Z,3.84
2017-05-27T07:11:04.937Z,3.48
2017-05-27T07:13:33.887Z,3.74
2017-05-27T07:16:03.287Z,3.70
2017-05-27T07:18:32.233Z,3.68
2017-05-27T07:21:01.177Z,4.14
2017-05-27T07:23:30.497Z,4.32
2017-05-27T07:25:59.454Z,3.74
2017-05-27T07:28:28.450Z,5.00
2017-05-27T07:30:57.836Z,3.56
2017-05-27T07:33:26.900Z,4.12
2017-05-27T07:35:55.915Z,3.58
2017-05-27T07:38:25.440Z,3.62
2017-05-27T07:40:54.403Z,3.96
2017-05-27T07:43:23.368Z,3.38
2017-05-27T07:45:52.719Z,3.56
2017-05-27T07:48:21.684Z,4.16
2017-05-27T07:50:50.671Z,3.96
2017-05-27T07:53:19.993Z,4.20
2017-05-27T07:55:48.963Z,3.80
2017-05-27T07:58:17.942Z,3.96
2017-05-27T08:00:47.282Z,4.82
2017-05-27T08:03:16.269Z,3.30
2017-05-27T08:05:45.224Z,3.70
2017-05-27T08:08:14.551Z,3.80
2017-05-27T08:10:43.529Z,4.08
2017-05-27T08:13:12.483Z,3.96
2017-05-27T08:15:41.781Z,3.48
2017-05-27T08:18:10.713Z,3.64
2017-05-27T08:20:39.668Z,4.58
2017-05-27T08:23:09.033Z,3.58
2017-05-27T08:25:38.084Z,4.18
2017-05-27T08:28:07.038Z,4.12
2017-05-27T08:30:36.389Z,4.42
2017-05-27T08:33:11.012Z,4.20
2017-05-27T08:35:40.334Z,3.86
2017-05-27T08:38:09.266Z,3.74
2017-05-27T08:40:38.225Z,4.06
2017-05-27T08:43:07.622Z,3.68
2017-05-27T08:45:36.590Z,4.40
2017-05-27T08:48:05.575Z,3.70
2017-05-27T08:50:34.903Z,3.68
2017-05-27T08:53:03.908Z,3.68
2017-05-27T08:55:32.869Z,6.76
2017-05-27T08:58:02.199Z,4.48
2017-05-27T09:00:31.176Z,3.60
2017-05-27T09:03:00.155Z,3.40
2017-05-27T09:05:29.471Z,3.22
2017-05-27T09:07:58.425Z,4.58
2017-05-27T09:10:27.383Z,3.38
2017-05-27T09:12:56.854Z,3.64
2017-05-27T09:15:25.819Z,2.86
2017-05-27T09:17:54.826Z,3.30
2017-05-27T09:20:24.256Z,3.20
2017-05-27T09:22:53.275Z,3.40
2017-05-27T09:25:22.247Z,3.32
2017-05-27T09:27:51.694Z,3.08
2017-05-27T09:30:20.709Z,2.80
2017-05-27T09:32:49.786Z,2.90
2017-05-27T09:35:19.283Z,3.48
2017-05-27T09:37:48.260Z,3.60
2017-05-27T09:40:17.310Z,3.50
2017-05-27T09:42:46.634Z,2.50
2017-05-27T09:45:15.669Z,2.88
2017-05-27T09:47:44.640Z,2.86
2017-05-27T09:50:14.102Z,3.22
2017-05-27T09:52:43.090Z,2.98
2017-05-27T09:55:12.071Z,2.84
2017-05-27T09:57:41.502Z,2.90
2017-05-27T10:00:10.476Z,3.22
2017-05-27T10:02:39.494Z,2.72
2017-05-27T10:05:08.848Z,2.78
2017-05-27T10:07:37.793Z,3.34
2017-05-27T10:10:06.755Z,2.50
2017-05-27T10:12:36.189Z,2.64
2017-05-27T10:15:05.159Z,3.24
2017-05-27T10:17:34.146Z,2.82
2017-05-27T10:20:03.538Z,2.88
2017-05-27T10:22:32.507Z,1.98
2017-05-27T10:25:01.508Z,2.64
2017-05-27T10:27:30.935Z,2.12
2017-05-27T10:29:59.945Z,2.20
2017-05-27T10:32:28.967Z,2.70
2017-05-27T10:34:58.282Z,2.74
2017-05-27T10:37:27.375Z,2.20
2017-05-27T10:39:56.362Z,2.16
2017-05-27T10:42:25.718Z,2.40
2017-05-27T10:44:53.911Z,2.74
2017-05-27T10:47:22.874Z,2.32
2017-05-27T10:49:52.264Z,2.14
2017-05-27T10:52:21.245Z,2.68
2017-05-27T10:54:50.231Z,2.14
2017-05-27T10:57:19.531Z,2.34
2017-05-27T10:59:48.480Z,2.32
2017-05-27T11:02:17.461Z,2.62
2017-05-27T11:04:46.883Z,3.06
2017-05-27T11:07:15.849Z,3.00
2017-05-27T11:09:44.992Z,2.36
2017-05-27T11:12:14.375Z,2.56
2017-05-27T11:14:43.348Z,2.12
2017-05-27T11:17:12.318Z,2.40
2017-05-27T11:19:41.826Z,2.50
2017-05-27T11:22:10.910Z,2.54
2017-05-27T11:24:39.874Z,2.70
2017-05-27T11:27:09.246Z,2.60
2017-05-27T11:29:38.210Z,2.68
2017-05-27T11:32:07.182Z,2.14
2017-05-27T11:34:36.667Z,3.00
2017-05-27T11:37:05.697Z,3.40
2017-05-27T11:39:34.681Z,2.16
2017-05-27T11:42:04.057Z,3.12
2017-05-27T11:44:33.022Z,2.48
2017-05-27T11:47:02.011Z,2.82
2017-05-27T11:49:31.324Z,2.82
2017-05-27T11:52:00.298Z,2.32
2017-05-27T11:54:29.248Z,2.02
2017-05-27T11:56:58.647Z,2.24
2017-05-27T11:59:27.623Z,2.40
2017-05-27T12:01:56.583Z,2.40
2017-05-27T12:04:26.037Z,2.70
2017-05-27T12:06:55.042Z,2.88
2017-05-27T12:09:24.014Z,2.94
2017-05-27T12:11:53.395Z,2.98
2017-05-27T12:14:22.386Z,2.46
2017-05-27T12:16:51.354Z,2.82
2017-05-27T12:19:20.730Z,3.32
2017-05-27T12:21:49.705Z,3.20
2017-05-27T12:24:18.679Z,2.90
2017-05-27T12:26:48.055Z,3.08
2017-05-27T12:29:17.021Z,2.58
2017-05-27T12:31:46.077Z,2.70
2017-05-27T12:34:15.440Z,2.60
2017-05-27T12:36:44.409Z,2.62
2017-05-27T12:39:13.370Z,2.84
2017-05-27T12:41:42.813Z,2.78
2017-05-27T12:44:11.771Z,2.86
2017-05-27T12:46:39.987Z,2.86
2017-05-27T12:49:09.416Z,2.76
2017-05-27T12:51:38.376Z,2.74
2017-05-27T12:54:07.355Z,2.78
2017-05-27T12:56:36.650Z,2.52
2017-05-27T12:59:05.621Z,2.36
2017-05-27T13:01:34.593Z,2.86
2017-05-27T13:04:04.000Z,3.38
2017-05-27T13:06:32.967Z,2.38
2017-05-27T13:09:01.934Z,2.68
2017-05-27T13:11:31.343Z,2.90
2017-05-27T13:14:00.326Z,2.32
2017-05-27T13:16:29.281Z,2.58
2017-05-27T13:18:58.598Z,2.64
2017-05-27T13:21:27.639Z,2.74
2017-05-27T13:23:56.604Z,2.52
2017-05-27T13:26:25.154Z,2.30
2017-05-27T13:28:54.180Z,1.96
2017-05-27T13:31:23.158Z,1.64
2017-05-27T13:33:52.562Z,1.62
2017-05-27T13:36:21.530Z,1.98
2017-05-27T13:38:50.527Z,1.90
2017-05-27T13:41:19.998Z,1.90
2017-05-27T13:43:49.012Z,2.04
2017-05-27T13:46:18.043Z,2.26
2017-05-27T13:48:47.490Z,2.14
2017-05-27T13:51:16.439Z,2.28
2017-05-27T13:53:45.415Z,2.18
2017-05-27T13:56:14.741Z,1.96
2017-05-27T13:58:43.705Z,2.10
2017-05-27T14:01:12.670Z,1.84
2017-05-27T14:03:42.138Z,2.18
2017-05-27T14:06:11.095Z,2.18
2017-05-27T14:08:40.060Z,2.06
2017-05-27T14:11:09.407Z,2.94
2017-05-27T14:13:38.370Z,1.74
2017-05-27T14:16:06.591Z,2.48
2017-05-27T14:18:36.006Z,2.00
2017-05-27T14:21:05.014Z,2.02
2017-05-27T14:23:34.013Z,2.12
2017-05-27T14:26:03.484Z,2.58
2017-05-27T14:28:32.473Z,2.78
2017-05-27T14:31:01.474Z,2.30
2017-05-27T14:33:30.951Z,2.50
2017-05-27T14:35:59.976Z,2.18
2017-05-27T14:38:28.952Z,3.06
2017-05-27T14:40:58.273Z,2.24
2017-05-27T14:43:27.239Z,2.40
2017-05-27T14:45:56.205Z,1.56
2017-05-27T14:48:25.651Z,2.10
2017-05-27T14:50:54.612Z,2.10
2017-05-27T14:53:22.840Z,2.02
2017-05-27T14:55:52.291Z,2.22
2017-05-27T14:58:21.288Z,2.00
2017-05-27T15:00:50.329Z,1.74
2017-05-27T15:03:19.770Z,2.54
2017-05-27T15:05:48.742Z,2.32
2017-05-27T15:08:17.694Z,2.06
2017-05-27T15:10:47.079Z,2.60
2017-05-27T15:13:16.101Z,2.22
2017-05-27T15:15:45.099Z,2.36
2017-05-27T15:18:14.583Z,2.08
2017-05-27T15:20:43.640Z,2.30
2017-05-27T15:23:12.704Z,2.42
2017-05-27T15:25:42.146Z,2.18
2017-05-27T15:28:11.127Z,2.30
2017-05-27T15:30:40.142Z,2.52
2017-05-27T15:33:09.516Z,2.04
2017-05-27T15:35:38.536Z,2.20
2017-05-27T15:38:07.600Z,2.52
2017-05-27T15:40:37.083Z,2.92
2017-05-27T15:43:06.085Z,2.80
2017-05-27T15:45:35.045Z,2.56
2017-05-27T15:48:04.399Z,3.04
2017-05-27T15:50:33.371Z,2.42
2017-05-27T15:53:02.301Z,2.34
2017-05-27T15:55:31.642Z,2.52
2017-05-27T15:58:00.617Z,2.64
2017-05-27T16:00:29.617Z,2.50
2017-05-27T16:02:58.973Z,2.46
2017-05-27T16:05:27.938Z,2.88
2017-05-27T16:07:56.895Z,3.30
2017-05-27T16:10:26.252Z,2.38
2017-05-27T16:12:54.486Z,2.34
2017-05-27T16:15:23.439Z,2.06
2017-05-27T16:17:52.775Z,2.56
2017-05-27T16:20:21.767Z,2.32
2017-05-27T16:22:50.748Z,2.50
2017-05-27T16:25:20.093Z,2.84
2017-05-27T16:27:49.060Z,2.42
2017-05-27T16:30:18.030Z,2.78
2017-05-27T16:32:47.385Z,2.48
2017-05-27T16:35:16.387Z,2.46
2017-05-27T16:37:45.390Z,2.34
2017-05-27T16:40:14.804Z,2.38
2017-05-27T16:42:43.811Z,4.12
2017-05-27T16:45:12.767Z,4.58
2017-05-27T16:47:42.348Z,4.40
2017-05-27T16:50:11.303Z,3.12
2017-05-27T16:52:40.291Z,3.64
2017-05-27T16:55:09.840Z,2.70
2017-05-27T16:57:38.821Z,2.66
2017-05-27T17:00:07.794Z,2.68
2017-05-27T17:02:37.263Z,2.50
2017-05-27T17:05:06.243Z,2.46
2017-05-27T17:07:35.239Z,2.58
2017-05-27T17:10:04.664Z,2.80
2017-05-27T17:12:33.687Z,2.70
2017-05-27T17:15:02.884Z,3.32
2017-05-27T17:17:32.334Z,2.10
2017-05-27T17:20:01.294Z,2.88
2017-05-27T17:22:30.271Z,2.76
2017-05-27T17:24:59.599Z,2.52
2017-05-27T17:27:28.561Z,2.68
2017-05-27T17:29:57.604Z,3.12
2017-05-27T17:32:27.090Z,2.66
2017-05-27T17:34:56.086Z,2.88
2017-05-27T17:37:25.145Z,2.84
2017-05-27T17:39:54.579Z,2.44
2017-05-27T17:42:23.548Z,2.26
2017-05-27T17:44:52.507Z,3.00
2017-05-27T17:47:21.975Z,2.96
2017-05-27T17:49:50.944Z,2.64
2017-05-27T17:52:19.904Z,2.08
2017-05-27T17:54:49.279Z,2.50
2017-05-27T17:57:18.249Z,2.72
2017-05-27T17:59:47.233Z,2.36
2017-05-27T18:02:16.597Z,2.42
2017-05-27T18:04:45.552Z,2.56
2017-05-27T18:07:14.520Z,2.60
2017-05-27T18:09:43.938Z,2.12
2017-05-27T18:12:12.954Z,3.06
2017-05-27T18:14:41.968Z,2.80
2017-05-27T18:17:11.281Z,2.94
2017-05-27T18:19:40.303Z,2.62
2017-05-27T18:22:12.304Z,2.76
2017-05-27T18:24:41.339Z,2.60
2017-05-27T18:27:10.335Z,2.26
2017-05-27T18:29:39.751Z,2.86
2017-05-27T18:32:08.773Z,2.82
2017-05-27T18:34:37.771Z,2.92
2017-05-27T18:37:07.136Z,3.06
2017-05-27T18:39:36.071Z,2.80
2017-05-27T18:42:05.027Z,3.04
2017-05-27T18:44:34.423Z,2.50
2017-05-27T18:47:03.441Z,3.30
2017-05-27T18:49:32.436Z,3.48
2017-05-27T18:52:01.876Z,4.04
2017-05-27T18:54:30.817Z,4.20
2017-05-27T18:56:59.786Z,3.92
2017-05-27T18:59:29.291Z,3.58
2017-05-27T19:01:58.269Z,3.20
2017-05-27T19:04:27.268Z,3.82
2017-05-27T19:06:56.599Z,3.24
2017-05-27T19:09:25.561Z,3.68
2017-05-27T19:11:54.546Z,4.88
2017-05-27T19:14:23.888Z,3.18
2017-05-27T19:16:53.031Z,3.50
2017-05-27T19:19:21.998Z,3.80
2017-05-27T19:21:51.356Z,4.00
2017-05-27T19:24:20.333Z,4.60
2017-05-27T19:26:49.303Z,4.88
2017-05-27T19:29:18.651Z,3.60
2017-05-27T19:31:47.639Z,3.34
2017-05-27T19:34:16.592Z,3.72
2017-05-27T19:36:45.949Z,3.60
2017-05-27T19:39:14.939Z,4.10
2017-05-27T19:41:43.932Z,3.70
2017-05-27T19:44:13.297Z,4.14
2017-05-27T19:46:42.264Z,3.78
2017-05-27T19:49:11.258Z,4.14
2017-05-27T19:51:40.575Z,3.56
2017-05-27T19:54:09.528Z,4.10
2017-05-27T19:56:38.489Z,3.44
2017-05-27T19:59:07.878Z,3.82
2017-05-27T20:01:36.883Z,3.30
2017-05-27T20:04:05.899Z,3.52
2017-05-27T20:06:35.354Z,3.62
2017-05-27T20:09:04.326Z,3.94
2017-05-27T20:11:33.306Z,3.66
2017-05-27T20:14:02.753Z,4.52
2017-05-27T20:16:31.720Z,3.82
2017-05-27T20:19:00.690Z,3.52
2017-05-27T20:21:30.158Z,4.28
2017-05-27T20:23:59.142Z,3.20
2017-05-27T20:26:28.194Z,3.84
2017-05-27T20:28:57.603Z,4.68
2017-05-27T20:31:26.707Z,4.08
2017-05-27T20:33:55.697Z,4.08
2017-05-27T20:36:25.000Z,3.92
2017-05-27T20:38:53.964Z,3.96
2017-05-27T20:41:23.053Z,4.46
2017-05-27T20:43:52.416Z,4.00
2017-05-27T20:46:21.383Z,4.52
2017-05-27T20:48:50.349Z,5.06
2017-05-27T20:51:19.678Z,5.16
2017-05-27T20:53:48.686Z,4.58
2017-05-27T20:56:17.694Z,4.04
2017-05-27T20:58:47.029Z,4.26
2017-05-27T21:01:16.011Z,4.60
2017-05-27T21:03:45.013Z,4.80
2017-05-27T21:06:14.479Z,4.52
2017-05-27T21:08:43.511Z,4.54
2017-05-27T21:11:12.481Z,5.78
2017-05-27T21:13:41.820Z,5.00
2017-05-27T21:16:10.888Z,4.80
2017-05-27T21:18:39.917Z,5.40
2017-05-27T21:21:09.367Z,5.38
2017-05-27T21:23:38.387Z,4.98
2017-05-27T21:26:07.390Z,4.94
2017-05-27T21:28:36.805Z,5.18
2017-05-27T21:31:05.843Z,5.46
2017-05-27T21:33:34.793Z,5.20
2017-05-27T21:36:04.191Z,5.56
2017-05-27T21:38:33.182Z,5.20
2017-05-27T21:41:02.174Z,4.74
2017-05-27T21:43:31.571Z,5.50
2017-05-27T21:46:00.547Z,4.92
2017-05-27T21:48:29.527Z,5.54
2017-05-27T21:50:58.997Z,4.22
2017-05-27T21:53:28.060Z,5.10
2017-05-27T21:55:57.019Z,4.38
2017-05-27T21:58:26.439Z,4.54
2017-05-27T22:00:55.382Z,5.04
2017-05-27T22:03:24.363Z,4.20
2017-05-27T22:05:53.752Z,4.38
2017-05-27T22:08:22.723Z,4.68
2017-05-27T22:10:51.795Z,3.96
2017-05-27T22:13:21.319Z,4.34
2017-05-27T22:15:50.314Z,4.30
2017-05-27T22:18:19.313Z,3.68
2017-05-27T22:20:48.702Z,4.84
2017-05-27T22:23:17.691Z,4.38
2017-05-27T22:25:46.654Z,4.04
2017-05-27T22:28:16.006Z,4.10
2017-05-27T22:30:45.005Z,4.00
2017-05-27T22:33:13.962Z,4.40
2017-05-27T22:35:43.372Z,4.36
2017-05-27T22:38:12.359Z,3.98
2017-05-27T22:40:41.313Z,3.88
2017-05-27T22:43:10.685Z,3.64
2017-05-27T22:45:39.692Z,4.56
2017-05-27T22:48:08.731Z,3.56
2017-05-27T22:50:38.223Z,4.24
2017-05-27T22:53:07.188Z,3.40
2017-05-27T22:55:36.177Z,4.14
2017-05-27T22:58:05.534Z,3.84
2017-05-27T23:00:34.518Z,3.90
2017-05-27T23:03:03.479Z,3.84
2017-05-27T23:05:32.938Z,4.58
2017-05-27T23:08:01.902Z,4.70
2017-05-27T23:10:30.892Z,4.02
2017-05-27T23:13:00.322Z,4.48
2017-05-27T23:15:29.277Z,4.04
2017-05-27T23:17:58.230Z,4.28
2017-05-27T23:20:27.637Z,4.20
2017-05-27T23:22:56.604Z,4.00
2017-05-27T23:25:25.576Z,4.10
2017-05-27T23:27:54.992Z,4.00
2017-05-27T23:30:23.957Z,4.38
2017-05-27T23:32:52.914Z,4.06
2017-05-27T23:35:22.279Z,3.36
2017-05-27T23:37:51.238Z,3.48
2017-05-27T23:40:20.202Z,4.02
2017-05-27T23:42:49.547Z,2.82
2017-05-27T23:45:18.549Z,3.38
2017-05-27T23:47:47.535Z,3.38
2017-05-27T23:50:16.932Z,3.44
2017-05-27T23:52:45.976Z,3.24
2017-05-27T23:55:14.922Z,3.58
2017-05-27T23:57:44.340Z,3.74
